Codora, California
Current Conditions -  °F | °C
As of 3:05 AM on Friday 24 Oct 2014 (Local Time) from KOVE Reporting Station
Moderate Fog Moderate Fog  
Wind Chill: 55°   Ceiling: 200
Heat Index: 55°   Visibility: 0.5mi
Dew Point: 53°   Wind: 0mph
Humidity: 93%   Direction: NA
Pressure: 29.99"   Gusts: NA
Location:  39.438°N, 122.067°W
Report Text: KOVE 241005Z AUTO 00000KT 1/2SM FG VV002 13/12 A2999 RMK AO2 T01280117 $
Loading
Personal Weather Stations






























Interactive Weather Map
Tropical Storm Tracking
New forecast layout! Learn more

10-Day Weather Forecast

Advertisements
Track Severe Weather on mobile